createdAt,value
2023-04-10T00:00:30.931Z,22.5559
2023-04-10T00:01:34.152Z,23.9504
2023-04-10T00:02:37.533Z,20.1045
2023-04-10T00:03:41.140Z,13.3315
2023-04-10T00:04:44.477Z,20.9996
2023-04-10T00:05:47.675Z,18.1106
2023-04-10T00:06:47.885Z,19.4704
2023-04-10T00:07:51.102Z,17.1667
2023-04-10T00:08:54.471Z,14.2777
2023-04-10T00:09:57.681Z,15.3891
2023-04-10T00:11:00.897Z,13.4999
2023-04-10T00:12:04.107Z,14.7256
2023-04-10T00:13:07.379Z,17.0566
2023-04-10T00:14:10.578Z,7.7774
2023-04-10T00:15:13.800Z,19.9994
2023-04-10T00:16:17.056Z,18.3327
2023-04-10T00:17:20.382Z,16.1639
2023-04-10T00:18:23.593Z,11.4444
2023-04-10T00:19:26.825Z,9.3896
2023-04-10T00:20:30.019Z,13.0026
2023-04-10T00:21:33.239Z,14.5000
2023-04-10T00:22:36.441Z,14.7288
2023-04-10T00:23:39.691Z,18.4445
2023-04-10T00:24:42.919Z,16.4444
2023-04-10T00:25:46.140Z,15.1667
2023-04-10T00:26:49.362Z,16.1107
2023-04-10T00:27:52.607Z,12.5000
2023-04-10T00:28:55.815Z,10.4445
2023-04-10T00:29:59.026Z,13.5323
2023-04-10T00:31:02.266Z,15.2337
2023-04-10T00:32:05.499Z,25.6161
2023-04-10T00:33:08.708Z,16.7777
2023-04-10T00:34:12.101Z,14.6661
2023-04-10T00:35:15.318Z,14.8889
2023-04-10T00:36:18.540Z,16.3334
2023-04-10T00:37:21.771Z,15.4975
2023-04-10T00:38:24.993Z,14.0000
2023-04-10T00:39:28.202Z,14.0000
2023-04-10T00:40:28.412Z,15.9330
2023-04-10T00:41:28.392Z,23.8832
2023-04-10T00:42:31.663Z,23.8709
2023-04-10T00:43:34.882Z,19.0561
2023-04-10T00:44:38.163Z,21.1691
2023-04-10T00:45:41.497Z,11.6667
2023-04-10T00:46:44.738Z,14.3713
2023-04-10T00:47:48.031Z,21.1539
2023-04-10T00:48:51.326Z,33.1681
2023-04-10T00:49:54.604Z,7.2123
2023-04-10T00:50:57.855Z,13.8498
2023-04-10T00:51:58.527Z,15.2354
2023-04-10T00:52:58.473Z,19.3603
2023-04-10T00:54:01.784Z,13.7778
2023-04-10T00:55:05.066Z,21.5539
2023-04-10T00:56:08.324Z,14.7230
2023-04-10T00:57:11.758Z,17.5455
2023-04-10T00:58:14.972Z,18.2563
2023-04-10T00:59:18.259Z,16.9719
2023-04-10T01:00:21.492Z,17.9068
2023-04-10T01:01:21.561Z,19.0619
2023-04-10T01:02:24.919Z,15.1358
2023-04-10T01:03:25.098Z,30.1184
2023-04-10T01:04:25.095Z,4.1337
2023-04-10T01:05:28.423Z,10.5009
2023-04-10T01:06:31.706Z,21.0518
2023-04-10T01:07:34.958Z,13.7776
2023-04-10T01:08:38.240Z,19.1446
2023-04-10T01:09:38.246Z,13.3103
2023-04-10T01:10:41.527Z,16.8832
2023-04-10T01:11:41.517Z,18.0601
2023-04-10T01:12:44.793Z,15.0617
2023-04-10T01:13:44.888Z,26.5780
2023-04-10T01:14:48.139Z,16.3706
2023-04-10T01:15:51.425Z,4.0797
2023-04-10T01:16:54.751Z,20.1870
2023-04-10T01:17:58.003Z,13.8330
2023-04-10T01:19:01.262Z,14.8977
2023-04-10T01:20:04.514Z,19.4809
2023-04-10T01:21:07.770Z,11.2270
2023-04-10T01:22:11.072Z,19.2451
2023-04-10T01:23:14.304Z,16.9236
2023-04-10T01:24:17.599Z,18.0001
2023-04-10T01:25:20.826Z,343.4359
2023-04-10T01:26:24.104Z,25.3872
2023-04-10T01:27:27.372Z,14.5847
2023-04-10T01:28:30.637Z,11.3693
2023-04-10T01:29:33.903Z,17.2364
2023-04-10T01:30:37.250Z,4.3127
2023-04-10T01:31:37.310Z,21.1581
2023-04-10T01:32:40.612Z,11.0498
2023-04-10T01:33:43.878Z,21.8381
2023-04-10T01:34:47.137Z,23.2717
2023-04-10T01:35:50.437Z,20.2688
2023-04-10T01:36:50.563Z,342.8643
2023-04-10T01:37:53.842Z,15.2711
2023-04-10T01:38:57.104Z,6.0999
2023-04-10T01:40:00.379Z,18.6553
2023-04-10T01:41:03.668Z,24.4442
2023-04-10T01:42:06.940Z,23.0547
2023-04-10T01:43:10.232Z,26.4445
2023-04-10T01:44:13.510Z,18.5000
2023-04-10T01:45:16.750Z,2.8581
2023-04-10T01:46:20.010Z,17.2974
2023-04-10T01:47:23.282Z,19.7508
2023-04-10T01:48:26.520Z,1.6867
2023-04-10T01:49:29.788Z,16.1222
2023-04-10T01:50:33.048Z,13.7181
2023-04-10T01:51:36.329Z,2.9858
2023-04-10T01:52:39.625Z,17.6308
2023-04-10T01:53:42.894Z,8.5374
2023-04-10T01:54:46.114Z,9.1109
2023-04-10T01:55:49.396Z,10.2315
2023-04-10T01:56:52.641Z,12.7363
2023-04-10T01:57:55.945Z,23.2579
2023-04-10T01:58:59.401Z,29.3513
2023-04-10T02:00:02.648Z,28.1804
2023-04-10T02:01:05.911Z,23.7242
2023-04-10T02:02:06.045Z,15.2285
2023-04-10T02:03:09.575Z,10.6551
2023-04-10T02:04:09.738Z,4.0833
2023-04-10T02:05:21.625Z,20.6160
2023-04-10T02:06:14.660Z,14.8699
2023-04-10T02:07:17.904Z,17.4509
2023-04-10T02:08:21.225Z,14.3831
2023-04-10T02:09:24.449Z,17.7914
2023-04-10T02:10:27.779Z,4.5471
2023-04-10T02:11:31.044Z,17.5489
2023-04-10T02:12:34.269Z,10.4525
2023-04-10T02:13:37.685Z,2.4242
2023-04-10T02:14:40.933Z,18.9490
2023-04-10T02:15:44.225Z,350.1113
2023-04-10T02:16:44.254Z,340.6689
2023-04-10T02:17:47.545Z,6.5356
2023-04-10T02:18:50.787Z,20.0554
2023-04-10T02:19:54.068Z,13.0565
2023-04-10T02:20:57.300Z,13.0474
2023-04-10T02:22:00.555Z,25.2222
2023-04-10T02:23:04.069Z,21.9446
2023-04-10T02:24:03.868Z,17.2936
2023-04-10T02:25:07.095Z,18.8886
2023-04-10T02:26:10.837Z,347.3828
2023-04-10T02:27:10.553Z,25.8824
2023-04-10T02:28:13.798Z,16.5558
2023-04-10T02:29:17.036Z,22.9481
2023-04-10T02:30:20.274Z,11.5425
2023-04-10T02:31:23.545Z,24.8889
2023-04-10T02:32:26.904Z,18.5003
2023-04-10T02:33:30.140Z,15.8314
2023-04-10T02:34:33.431Z,19.4151
2023-04-10T02:35:37.179Z,25.0614
2023-04-10T02:36:37.205Z,23.7063
2023-04-10T02:37:37.161Z,9.9361
2023-04-10T02:38:37.070Z,13.0420
2023-04-10T02:39:40.366Z,22.3798
2023-04-10T02:40:43.600Z,17.0833
2023-04-10T02:41:46.882Z,2.5932
2023-04-10T02:42:50.118Z,15.0979
2023-04-10T02:43:53.617Z,16.8889
2023-04-10T02:44:53.596Z,14.3008
2023-04-10T02:45:56.872Z,17.4944
2023-04-10T02:47:00.923Z,358.5957
2023-04-10T02:48:00.703Z,339.8040
2023-04-10T02:49:03.943Z,2.9441
2023-04-10T02:50:07.209Z,19.0731
2023-04-10T02:51:10.483Z,12.6112
2023-04-10T02:52:13.711Z,21.0437
2023-04-10T02:53:16.946Z,25.1220
2023-04-10T02:54:17.029Z,11.1994
2023-04-10T02:55:20.300Z,27.9329
2023-04-10T02:56:23.526Z,23.3327
2023-04-10T02:57:26.801Z,20.7778
2023-04-10T02:58:30.050Z,14.5585
2023-04-10T02:59:33.288Z,19.9375
2023-04-10T03:00:36.522Z,18.9980
2023-04-10T03:01:40.075Z,19.7062
2023-04-10T03:02:43.438Z,16.0717
2023-04-10T03:03:43.415Z,17.1457
2023-04-10T03:04:46.758Z,16.9555
2023-04-10T03:05:50.012Z,347.1548
2023-04-10T03:06:53.265Z,347.5549
2023-04-10T03:07:56.497Z,4.1672
2023-04-10T03:08:59.790Z,7.9384
2023-04-10T03:10:03.452Z,19.2732
2023-04-10T03:11:03.182Z,9.0624
2023-04-10T03:12:06.428Z,11.5000
2023-04-10T03:13:09.694Z,9.5001
2023-04-10T03:14:13.060Z,6.9965
2023-04-10T03:15:16.731Z,348.5300
2023-04-10T03:16:16.513Z,347.3861
2023-04-10T03:17:19.742Z,2.6477
2023-04-10T03:18:23.000Z,3.5173
2023-04-10T03:19:26.238Z,3.3882
2023-04-10T03:20:29.997Z,359.9700
2023-04-10T03:21:30.264Z,341.5471
2023-04-10T03:22:33.513Z,348.5065
2023-04-10T03:23:37.133Z,357.8017
2023-04-10T03:24:36.941Z,18.0951
2023-04-10T03:25:40.196Z,26.8352
2023-04-10T03:26:40.388Z,16.3527
2023-04-10T03:27:43.656Z,22.3337
2023-04-10T03:28:46.945Z,14.2891
2023-04-10T03:29:50.200Z,13.9421
2023-04-10T03:30:53.454Z,3.3893
2023-04-10T03:31:56.779Z,12.7188
2023-04-10T03:32:56.690Z,15.3536
2023-04-10T03:34:00.210Z,21.8889
2023-04-10T03:35:03.482Z,24.2052
2023-04-10T03:36:06.745Z,28.3888
2023-04-10T03:37:10.046Z,21.8887
2023-04-10T03:38:13.369Z,20.1111
2023-04-10T03:39:13.433Z,20.1176
2023-04-10T03:40:16.669Z,20.0000
2023-04-10T03:41:19.959Z,19.8889
2023-04-10T03:42:23.241Z,20.4445
2023-04-10T03:43:26.505Z,20.8333
2023-04-10T03:44:29.757Z,20.8889
2023-04-10T03:45:33.056Z,20.8889
2023-04-10T03:46:33.072Z,20.6471
2023-04-10T03:47:36.331Z,20.3889
2023-04-10T03:48:39.574Z,20.2222
2023-04-10T03:49:42.819Z,20.0000
2023-04-10T03:50:46.061Z,20.0000
2023-04-10T03:51:49.327Z,19.2222
2023-04-10T03:52:52.588Z,18.5000
2023-04-10T03:53:56.121Z,18.4444
2023-04-10T03:54:56.065Z,18.5294
2023-04-10T03:55:59.460Z,18.7222
2023-04-10T03:57:03.270Z,17.8889
2023-04-10T03:58:03.029Z,17.8235
2023-04-10T03:59:06.302Z,17.5556
2023-04-10T04:00:09.514Z,17.2222
2023-04-10T04:01:12.763Z,17.6111
2023-04-10T04:02:16.289Z,16.4444
2023-04-10T04:03:19.832Z,15.4444
2023-04-10T04:04:20.174Z,14.9412
2023-04-10T04:05:20.070Z,15.0000
2023-04-10T04:06:23.298Z,14.9444
2023-04-10T04:07:26.574Z,15.0000
2023-04-10T04:08:29.922Z,15.0000
2023-04-10T04:09:33.224Z,15.0000
2023-04-10T04:10:36.443Z,15.3889
2023-04-10T04:11:39.688Z,16.0556
2023-04-10T04:12:42.909Z,16.1667
2023-04-10T04:13:46.169Z,16.0000
2023-04-10T04:14:49.611Z,16.0000
2023-04-10T04:15:52.971Z,15.8889
2023-04-10T04:16:56.262Z,14.2778
2023-04-10T04:17:59.525Z,15.1111
2023-04-10T04:19:02.826Z,15.1111
2023-04-10T04:20:06.107Z,15.0556
2023-04-10T04:21:09.311Z,15.0000
2023-04-10T04:22:12.950Z,15.0000
2023-04-10T04:23:16.167Z,14.8333
2023-04-10T04:24:19.430Z,14.4444
2023-04-10T04:25:22.649Z,14.1111
2023-04-10T04:26:25.921Z,13.6667
2023-04-10T04:27:29.172Z,13.5556
2023-04-10T04:28:32.413Z,13.3889
2023-04-10T04:29:35.922Z,0.0000
2023-04-10T04:30:36.300Z,13.6471
2023-04-10T04:31:36.123Z,13.8235
2023-04-10T04:32:39.400Z,0.0000
2023-04-10T04:33:43.100Z,14.0000
2023-04-10T04:34:42.887Z,0.0000
2023-04-10T04:35:46.200Z,14.0000
2023-04-10T04:36:49.429Z,0.0000
2023-04-10T04:37:52.732Z,0.0000
2023-04-10T04:38:55.959Z,0.0000
2023-04-10T04:39:59.226Z,0.0000
2023-04-10T04:41:02.467Z,14.0000
2023-04-10T04:42:03.761Z,14.0000
2023-04-10T04:43:07.011Z,14.0000
2023-04-10T04:44:10.680Z,14.0000
2023-04-10T04:45:10.542Z,14.0000
2023-04-10T04:46:13.841Z,14.0000
2023-04-10T04:47:17.125Z,13.0556
2023-04-10T04:48:20.383Z,13.0000
2023-04-10T04:49:24.054Z,12.9444
2023-04-10T04:50:24.870Z,13.5294
2023-04-10T04:51:24.689Z,13.8824
2023-04-10T04:52:27.949Z,14.5557
2023-04-10T04:53:31.188Z,15.2222
2023-04-10T04:54:34.432Z,15.0556
2023-04-10T04:55:37.787Z,15.0000
2023-04-10T04:56:40.994Z,15.0000
2023-04-10T04:57:44.274Z,15.0000
2023-04-10T04:58:47.496Z,14.8889
2023-04-10T04:59:50.747Z,14.5556
2023-04-10T05:00:54.046Z,14.4444
2023-04-10T05:01:58.306Z,14.0556
2023-04-10T05:02:58.225Z,14.0588
2023-04-10T05:04:01.570Z,14.0000
2023-04-10T05:05:04.869Z,14.0000
2023-04-10T05:06:08.699Z,14.0000
2023-04-10T05:07:08.464Z,14.0588
2023-04-10T05:08:11.695Z,14.1667
2023-04-10T05:09:14.967Z,15.3333
2023-04-10T05:10:18.195Z,14.8889
2023-04-10T05:11:21.590Z,14.6667
2023-04-10T05:12:23.449Z,14.2500
2023-04-10T05:13:26.709Z,12.6113
2023-04-10T05:14:29.980Z,11.6110
2023-04-10T05:15:33.281Z,10.2222
2023-04-10T05:16:36.772Z,10.4444
2023-04-10T05:17:36.575Z,10.7647
2023-04-10T05:18:39.802Z,11.0000
2023-04-10T05:19:41.385Z,11.0000
2023-04-10T05:20:44.657Z,12.1111
2023-04-10T05:21:49.258Z,13.3334
2023-04-10T05:22:49.124Z,16.4118
2023-04-10T05:23:52.351Z,16.3889
2023-04-10T05:24:55.855Z,16.1111
2023-04-10T05:25:59.115Z,17.6666
2023-04-10T05:27:02.439Z,19.3888
2023-04-10T05:28:05.623Z,20.1667
2023-04-10T05:29:08.938Z,20.0556
2023-04-10T05:30:12.164Z,20.3847
2023-04-10T05:31:15.466Z,30.6622
2023-04-10T05:32:18.734Z,28.9444
2023-04-10T05:33:21.992Z,28.9442
2023-04-10T05:34:25.216Z,31.3889
2023-04-10T05:35:28.494Z,32.8333
2023-04-10T05:36:31.725Z,32.2222
2023-04-10T05:37:34.971Z,36.6117
2023-04-10T05:38:38.223Z,33.6105
2023-04-10T05:39:38.298Z,34.1765
2023-04-10T05:40:41.497Z,34.2778
2023-04-10T05:41:44.752Z,34.2222
2023-04-10T05:42:47.995Z,49.1487
2023-04-10T05:43:51.259Z,55.3333
2023-04-10T05:44:54.485Z,53.2221
2023-04-10T05:45:57.829Z,55.2778
2023-04-10T05:47:01.076Z,55.2778
2023-04-10T05:48:04.690Z,56.3333
2023-04-10T05:49:04.466Z,49.8204
2023-04-10T05:50:07.725Z,46.5556
2023-04-10T05:51:11.004Z,45.5556
2023-04-10T05:52:14.224Z,45.0000
2023-04-10T05:53:17.481Z,44.8333
2023-04-10T05:54:20.738Z,45.2778
2023-04-10T05:55:23.969Z,45.3889
2023-04-10T05:56:27.257Z,44.6667
2023-04-10T05:57:30.473Z,44.0556
2023-04-10T05:58:33.742Z,42.1211
2023-04-10T05:59:36.980Z,28.1667
2023-04-10T06:00:40.243Z,0.0000
2023-04-10T06:01:43.485Z,28.8889
2023-04-10T06:02:46.941Z,34.3899
2023-04-10T06:03:46.966Z,36.1176
2023-04-10T06:04:46.916Z,36.2941
2023-04-10T06:05:50.158Z,36.4445
2023-04-10T06:06:53.412Z,35.9445
2023-04-10T06:07:58.352Z,16.2975
2023-04-10T06:08:58.438Z,35.4706
2023-04-10T06:10:01.656Z,36.7778
2023-04-10T06:11:04.911Z,36.2778
2023-04-10T06:12:08.187Z,55.8174
2023-04-10T06:13:11.465Z,57.8333
2023-04-10T06:14:14.710Z,58.0555
2023-04-10T06:15:17.952Z,57.8333
2023-04-10T06:16:21.220Z,57.8889
2023-04-10T06:17:24.484Z,57.6667
2023-04-10T06:18:27.744Z,57.5556
2023-04-10T06:19:31.002Z,57.5000
2023-04-10T06:20:34.272Z,57.7222
2023-04-10T06:21:37.540Z,57.4444
2023-04-10T06:22:40.839Z,57.6667
2023-04-10T06:23:44.067Z,57.4444
2023-04-10T06:24:47.306Z,57.6111
2023-04-10T06:25:50.562Z,57.6111
2023-04-10T06:26:53.797Z,47.3298
2023-04-10T06:27:57.061Z,45.0000
2023-04-10T06:29:00.352Z,44.8889
2023-04-10T06:30:03.667Z,44.7222
2023-04-10T06:31:06.882Z,44.2778
2023-04-10T06:32:10.123Z,44.0556
2023-04-10T06:33:13.381Z,42.7222
2023-04-10T06:34:16.639Z,42.1111
2023-04-10T06:35:19.875Z,41.8333
2023-04-10T06:36:23.173Z,39.8889
2023-04-10T06:37:26.515Z,21.2570
2023-04-10T06:38:29.840Z,11.9444
2023-04-10T06:39:33.087Z,12.0000
2023-04-10T06:40:36.417Z,12.0000
2023-04-10T06:41:39.624Z,12.0000
2023-04-10T06:42:42.858Z,11.5000
2023-04-10T06:43:46.132Z,10.3333
2023-04-10T06:44:49.423Z,10.3333
2023-04-10T06:45:52.762Z,10.5000
2023-04-10T06:46:55.998Z,10.6667
2023-04-10T06:47:59.427Z,10.3889
2023-04-10T06:49:03.373Z,10.6667
2023-04-10T06:50:03.185Z,23.8964
2023-04-10T06:51:06.480Z,24.8892
2023-04-10T06:52:09.756Z,17.4997
2023-04-10T06:53:13.000Z,16.7778
2023-04-10T06:54:16.285Z,16.0556
2023-04-10T06:55:19.557Z,16.0556
2023-04-10T06:56:22.990Z,5.9888
2023-04-10T06:57:26.248Z,3.1667
2023-04-10T06:58:29.477Z,10.5586
2023-04-10T06:59:32.766Z,13.5556
2023-04-10T07:00:36.002Z,14.9431
2023-04-10T07:01:39.287Z,19.8889
2023-04-10T07:02:42.624Z,21.9445
2023-04-10T07:03:46.007Z,22.0556
2023-04-10T07:04:50.411Z,12.7148
2023-04-10T07:05:50.281Z,48.5946
2023-04-10T07:06:53.543Z,47.8334
2023-04-10T07:07:56.798Z,48.0000
2023-04-10T07:09:00.078Z,48.1111
2023-04-10T07:10:03.336Z,21.5012
2023-04-10T07:11:07.025Z,5.2516
2023-04-10T07:12:07.076Z,7.0000
2023-04-10T07:13:07.873Z,9.7632
2023-04-10T07:14:08.076Z,13.9412
2023-04-10T07:15:08.360Z,12.9412
2023-04-10T07:16:08.182Z,12.4706
2023-04-10T07:17:11.418Z,16.2220
2023-04-10T07:18:11.714Z,18.0000
2023-04-10T07:19:14.961Z,18.3889
2023-04-10T07:20:18.466Z,18.0000
2023-04-10T07:21:21.704Z,17.9444
2023-04-10T07:22:24.992Z,17.8333
2023-04-10T07:23:28.494Z,17.1111
2023-04-10T07:24:28.294Z,17.0588
2023-04-10T07:25:28.402Z,16.5294
2023-04-10T07:26:31.687Z,16.3333
2023-04-10T07:27:34.991Z,16.1667
2023-04-10T07:28:38.293Z,16.0000
2023-04-10T07:29:41.809Z,23.3380
2023-04-10T07:30:41.651Z,39.6736
2023-04-10T07:31:45.002Z,44.0000
2023-04-10T07:32:45.354Z,43.8824
2023-04-10T07:33:45.230Z,44.0000
2023-04-10T07:34:48.500Z,42.1111
2023-04-10T07:35:51.796Z,36.4446
2023-04-10T07:36:55.074Z,11.3736
2023-04-10T07:37:55.197Z,13.7643
2023-04-10T07:38:58.534Z,9.0000
2023-04-10T07:40:01.788Z,4.4640
2023-04-10T07:41:05.082Z,1.0994
2023-04-10T07:42:08.509Z,46.8451
2023-04-10T07:43:11.788Z,33.1135
2023-04-10T07:44:15.048Z,25.6669
2023-04-10T07:45:15.116Z,21.0588
2023-04-10T07:46:18.904Z,26.5003
2023-04-10T07:47:18.741Z,26.2941
2023-04-10T07:48:22.037Z,26.1667
2023-04-10T07:49:25.366Z,20.7816
2023-04-10T07:50:28.638Z,7.6638
2023-04-10T07:51:31.970Z,341.4171
2023-04-10T07:52:35.247Z,329.3343
2023-04-10T07:53:35.290Z,316.6343
2023-04-10T07:54:38.609Z,3.4022
2023-04-10T07:55:39.560Z,16.5892
2023-04-10T07:56:39.507Z,16.8824
2023-04-10T07:57:43.049Z,16.3333
2023-04-10T07:58:42.866Z,17.6454
2023-04-10T07:59:46.146Z,10.7091
2023-04-10T08:00:46.771Z,4.8589
2023-04-10T08:01:50.133Z,18.5547
2023-04-10T08:02:50.342Z,18.3529
2023-04-10T08:03:50.415Z,17.8235
2023-04-10T08:04:50.492Z,17.8235
2023-04-10T08:05:50.428Z,17.7647
2023-04-10T08:06:53.697Z,16.0556
2023-04-10T08:07:57.125Z,16.0000
2023-04-10T08:09:00.447Z,9.9004
2023-04-10T08:10:03.798Z,8.1108
2023-04-10T08:11:07.052Z,47.3771
2023-04-10T08:12:10.389Z,66.9268
2023-04-10T08:13:10.408Z,11.9879
2023-04-10T08:14:13.765Z,7.6113
2023-04-10T08:15:14.760Z,10.1875
2023-04-10T08:16:18.120Z,9.3889
2023-04-10T08:17:21.495Z,8.8334
2023-04-10T08:18:22.312Z,38.9214
2023-04-10T08:19:25.666Z,11.4790
2023-04-10T08:20:28.998Z,5.5013
2023-04-10T08:21:32.420Z,8.0554
2023-04-10T08:22:35.684Z,28.6338
2023-04-10T08:23:38.979Z,101.8321
2023-04-10T08:24:42.299Z,0.0000
2023-04-10T08:25:45.593Z,121.5518
2023-04-10T08:26:49.562Z,129.0185
2023-04-10T08:27:49.456Z,2.6456
2023-04-10T08:28:53.047Z,9.4227
2023-04-10T08:29:53.118Z,20.1176
2023-04-10T08:30:56.498Z,20.0556
2023-04-10T08:31:59.804Z,20.0000
2023-04-10T08:33:03.203Z,55.5372
2023-04-10T08:34:06.533Z,108.6684
2023-04-10T08:35:09.934Z,81.2907
2023-04-10T08:36:10.044Z,177.0001
2023-04-10T08:37:13.360Z,183.3637
2023-04-10T08:38:16.759Z,49.4003
2023-04-10T08:39:20.059Z,61.2918
2023-04-10T08:40:23.409Z,354.4703
2023-04-10T08:41:23.639Z,359.2656
2023-04-10T08:43:29.482Z,14.7253
2023-04-10T08:44:32.771Z,20.7222
2023-04-10T08:45:36.262Z,30.7872
2023-04-10T08:46:39.794Z,37.8889
2023-04-10T08:47:39.749Z,38.0000
2023-04-10T08:48:43.029Z,36.5000
2023-04-10T08:49:46.387Z,23.9440
2023-04-10T08:50:49.717Z,18.6651
2023-04-10T08:51:53.240Z,14.8333
2023-04-10T08:52:56.570Z,24.1099
2023-04-10T08:53:59.929Z,33.0000
2023-04-10T08:55:03.217Z,33.0000
2023-04-10T08:56:06.569Z,27.6664
2023-04-10T08:57:11.054Z,24.2219
2023-04-10T08:58:10.992Z,12.3524
2023-04-10T08:59:14.299Z,87.7290
2023-04-10T09:01:19.823Z,3.5625
2023-04-10T09:02:23.152Z,5.6661
2023-04-10T09:03:26.605Z,7.9444
2023-04-10T09:04:26.584Z,359.6908
2023-04-10T09:05:29.943Z,6.1998
2023-04-10T09:06:33.300Z,6.3291
2023-04-10T09:07:36.607Z,21.1672
2023-04-10T09:08:39.961Z,41.1855
2023-04-10T09:09:43.264Z,44.8889
2023-04-10T09:10:46.582Z,44.8889
2023-04-10T09:11:49.994Z,193.6940
2023-04-10T09:12:53.274Z,287.7429
2023-04-10T09:13:56.725Z,310.0018
2023-04-10T09:14:56.635Z,340.3538
2023-04-10T09:15:56.722Z,105.8053
2023-04-10T09:17:00.055Z,144.4596
2023-04-10T09:18:03.489Z,4.0710
2023-04-10T09:19:05.721Z,87.6384
2023-04-10T09:20:03.563Z,99.1254
2023-04-10T09:21:06.878Z,99.2226
2023-04-10T09:22:10.233Z,52.6647
2023-04-10T09:23:13.535Z,344.2384
2023-04-10T09:24:13.633Z,22.2941
2023-04-10T09:25:16.990Z,21.1111
2023-04-10T09:26:17.107Z,20.9412
2023-04-10T09:27:20.505Z,6.1507
2023-04-10T09:28:23.792Z,12.1808
2023-04-10T09:29:27.096Z,17.9448
2023-04-10T09:30:30.404Z,14.1111
2023-04-10T09:31:33.726Z,14.1667
2023-04-10T09:32:37.061Z,14.1667
2023-04-10T09:33:40.362Z,13.3890
2023-04-10T09:34:43.690Z,13.6111
2023-04-10T09:35:47.002Z,17.3015
2023-04-10T09:36:50.366Z,15.8761
2023-04-10T09:37:53.705Z,42.8200
2023-04-10T09:38:57.044Z,43.2222
2023-04-10T09:40:00.418Z,43.2222
2023-04-10T09:41:03.725Z,43.3912
2023-04-10T09:42:07.044Z,355.0230
2023-04-10T09:43:10.337Z,337.6411
2023-04-10T09:44:13.700Z,336.2786
2023-04-10T09:45:17.014Z,334.4453
2023-04-10T09:46:20.392Z,334.6120
2023-04-10T09:47:23.758Z,330.2045
2023-04-10T09:48:27.140Z,348.8924
2023-04-10T09:49:30.516Z,336.4377
2023-04-10T09:50:36.314Z,45.7611
2023-04-10T09:51:34.291Z,31.3027
2023-04-10T09:52:37.565Z,132.3849
2023-04-10T09:53:37.664Z,43.5115
2023-04-10T09:54:40.967Z,144.4097
2023-04-10T09:55:44.278Z,294.7231
2023-04-10T09:56:47.589Z,304.7230
2023-04-10T09:57:50.943Z,225.0963
2023-04-10T09:58:54.414Z,97.2061
2023-04-10T09:59:54.332Z,44.9578
2023-04-10T10:00:57.687Z,50.4445
2023-04-10T10:02:01.099Z,53.1673
2023-04-10T10:03:04.698Z,52.9657
2023-04-10T10:04:04.869Z,128.6139
2023-04-10T10:05:08.268Z,34.3837
2023-04-10T10:06:08.530Z,105.9421
2023-04-10T10:07:11.871Z,358.1385
2023-04-10T10:08:15.176Z,315.0564
2023-04-10T10:09:19.498Z,316.0564
2023-04-10T10:10:19.353Z,342.3410
2023-04-10T10:11:22.624Z,23.3889
2023-04-10T10:12:25.932Z,23.3889
2023-04-10T10:13:29.462Z,27.7172
2023-04-10T10:14:32.809Z,23.2244
2023-04-10T10:15:36.126Z,2.5464
2023-04-10T10:16:39.496Z,134.1673
2023-04-10T10:17:42.778Z,125.8185
2023-04-10T10:18:46.059Z,293.5171
2023-04-10T10:19:49.377Z,338.8712
2023-04-10T10:20:52.656Z,334.1263
2023-04-10T10:21:52.672Z,326.8234
2023-04-10T10:22:55.965Z,36.7966
2023-04-10T10:23:56.016Z,83.8911
2023-04-10T10:24:59.301Z,27.0556
2023-04-10T10:26:03.971Z,22.4444
2023-04-10T10:27:03.795Z,24.8588
2023-04-10T10:28:07.091Z,14.5639
2023-04-10T10:29:10.370Z,56.5597
2023-04-10T10:30:28.321Z,48.6146
2023-04-10T10:31:15.948Z,37.6871
2023-04-10T10:32:19.316Z,32.1427
2023-04-10T10:33:22.610Z,334.4443
2023-04-10T10:34:25.929Z,332.8342
2023-04-10T10:35:30.108Z,320.8862
2023-04-10T10:36:30.035Z,357.6295
2023-04-10T10:37:33.307Z,8.8892
2023-04-10T10:38:36.905Z,60.1391
2023-04-10T10:39:40.190Z,344.5974
2023-04-10T10:40:43.529Z,3.9448
2023-04-10T10:41:43.570Z,324.3221
2023-04-10T10:42:46.916Z,43.3626
2023-04-10T10:43:50.160Z,26.0519
2023-04-10T10:44:53.472Z,24.8889
2023-04-10T10:45:56.809Z,33.0020
2023-04-10T10:47:00.138Z,29.7798
2023-04-10T10:48:03.539Z,22.1666
2023-04-10T10:49:03.534Z,38.6450
2023-04-10T10:50:06.822Z,33.3839
2023-04-10T10:51:10.153Z,29.7576
2023-04-10T10:52:13.534Z,38.1106
2023-04-10T10:53:16.845Z,39.4907
2023-04-10T10:54:20.157Z,53.6669
2023-04-10T10:55:23.490Z,52.5607
2023-04-10T10:56:26.823Z,44.9444
2023-04-10T10:57:30.127Z,46.2778
2023-04-10T10:58:33.470Z,39.3302
2023-04-10T10:59:36.790Z,36.8333
2023-04-10T11:00:40.073Z,36.5556
2023-04-10T11:01:43.530Z,345.6701
2023-04-10T11:02:43.481Z,336.0091
2023-04-10T11:03:43.473Z,330.5303
2023-04-10T11:04:46.905Z,327.2841
2023-04-10T11:05:50.241Z,303.2907
2023-04-10T11:06:53.577Z,263.6170
2023-04-10T11:07:56.900Z,290.5816
2023-04-10T11:08:57.311Z,310.5301
2023-04-10T11:09:57.313Z,316.7081
2023-04-10T11:11:00.588Z,316.5007
2023-04-10T11:12:04.138Z,319.6676
2023-04-10T11:13:03.924Z,320.6480
2023-04-10T11:14:07.261Z,320.3342
2023-04-10T11:15:10.570Z,320.5009
2023-04-10T11:16:13.936Z,323.9456
2023-04-10T11:17:17.259Z,313.2634
2023-04-10T11:18:20.548Z,123.1050
2023-04-10T11:19:24.295Z,194.6196
2023-04-10T11:20:24.297Z,107.4788
2023-04-10T11:21:27.609Z,57.1671
2023-04-10T11:22:30.960Z,54.6114
2023-04-10T11:23:34.254Z,158.1351
2023-04-10T11:24:37.574Z,178.5430
2023-04-10T11:25:40.877Z,211.0294
2023-04-10T11:26:44.379Z,186.1201
2023-04-10T11:27:47.774Z,98.1058
2023-04-10T11:28:51.289Z,132.4178
2023-04-10T11:29:54.579Z,165.1762
2023-04-10T11:30:57.884Z,126.6116
2023-04-10T11:32:01.270Z,73.1523
2023-04-10T11:33:01.297Z,49.6736
2023-04-10T11:34:02.202Z,278.5336
2023-04-10T11:35:05.725Z,282.3342
2023-04-10T11:36:05.569Z,282.5891
2023-04-10T11:37:05.601Z,282.1773
2023-04-10T11:38:08.941Z,234.3986
2023-04-10T11:39:12.348Z,269.0090
2023-04-10T11:40:15.662Z,253.7181
2023-04-10T11:41:19.092Z,221.5528
2023-04-10T11:42:22.369Z,209.1520
2023-04-10T11:43:25.677Z,239.2779
2023-04-10T11:44:29.151Z,230.7250
2023-04-10T11:45:32.444Z,170.9853
2023-04-10T11:46:35.725Z,126.1214
2023-04-10T11:47:39.112Z,126.0560
2023-04-10T11:48:42.405Z,127.6115
2023-04-10T11:49:45.742Z,129.1890
2023-04-10T11:50:49.019Z,73.4560
2023-04-10T11:51:52.334Z,172.7404
2023-04-10T11:52:56.576Z,0.0000
2023-04-10T11:53:56.503Z,204.0592
2023-04-10T11:54:59.806Z,205.1115
2023-04-10T11:56:03.119Z,241.4571
2023-04-10T11:57:06.411Z,301.1472
2023-04-10T11:58:09.714Z,288.4113
2023-04-10T11:59:13.042Z,294.0563
2023-04-10T12:00:16.360Z,298.5564
2023-04-10T12:01:19.750Z,298.9452
2023-04-10T12:02:23.118Z,298.7540
2023-04-10T12:03:26.621Z,287.2279
2023-04-10T12:04:26.708Z,254.5548
2023-04-10T12:05:26.603Z,233.5682
2023-04-10T12:06:29.873Z,232.2226
2023-04-10T12:07:33.219Z,232.3337
2023-04-10T12:08:36.478Z,231.7789
2023-04-10T12:09:38.039Z,208.9954
2023-04-10T12:10:41.308Z,162.8736
2023-04-10T12:11:41.371Z,175.8812
2023-04-10T12:12:44.652Z,132.3092
2023-04-10T12:13:47.950Z,142.5253
2023-04-10T12:14:47.975Z,143.0107
2023-04-10T12:15:51.296Z,229.5833
2023-04-10T12:16:51.319Z,187.4337
2023-04-10T12:17:54.660Z,213.3648
2023-04-10T12:18:58.200Z,234.0863
2023-04-10T12:19:58.091Z,241.9674
2023-04-10T12:21:01.456Z,259.8697
2023-04-10T12:22:01.597Z,267.9028
2023-04-10T12:23:04.865Z,280.1940
2023-04-10T12:24:08.224Z,326.6830
2023-04-10T12:25:11.520Z,275.4244
2023-04-10T12:26:14.849Z,263.5950
2023-04-10T12:27:14.836Z,223.8389
2023-04-10T12:28:18.140Z,32.4444
2023-04-10T12:29:21.500Z,125.7959
2023-04-10T12:30:25.614Z,195.0004
2023-04-10T12:31:25.439Z,219.6147
2023-04-10T12:32:28.734Z,271.3905
2023-04-10T12:33:32.032Z,287.2507
2023-04-10T12:34:35.356Z,237.6664
2023-04-10T12:35:38.688Z,232.9445
2023-04-10T12:36:42.060Z,274.9114
2023-04-10T12:37:45.404Z,294.3911
2023-04-10T12:38:48.709Z,324.8362